createdAt,value
2022-10-14T00:00:50.790Z,99.25
2022-10-14T00:02:52.237Z,98.90
2022-10-14T00:04:53.682Z,99.20
2022-10-14T00:06:55.380Z,99.00
2022-10-14T00:09:00.703Z,99.21
2022-10-14T00:11:11.059Z,99.54
2022-10-14T00:13:12.528Z,99.75
2022-10-14T00:15:14.179Z,99.55
2022-10-14T00:17:15.638Z,99.91
2022-10-14T00:19:17.225Z,99.66
2022-10-14T00:21:19.046Z,99.67
2022-10-14T00:23:20.489Z,100.00
2022-10-14T00:25:21.987Z,99.86
2022-10-14T00:27:23.691Z,100.00
2022-10-14T00:29:25.313Z,99.95
2022-10-14T00:31:28.124Z,99.90
2022-10-14T00:33:29.758Z,100.00
2022-10-14T00:35:32.434Z,99.71
2022-10-14T00:37:33.865Z,99.78
2022-10-14T00:39:35.732Z,99.63
2022-10-14T00:41:37.772Z,99.53
2022-10-14T00:44:01.944Z,100.00
2022-10-14T00:46:03.389Z,99.97
2022-10-14T00:48:05.008Z,100.00
2022-10-14T00:50:06.658Z,100.00
2022-10-14T00:52:13.575Z,99.81
2022-10-14T00:54:17.892Z,99.78
2022-10-14T00:56:24.834Z,100.00
2022-10-14T00:58:26.344Z,99.90
2022-10-14T01:00:27.988Z,99.65
2022-10-14T01:02:29.916Z,99.92
2022-10-14T01:04:31.707Z,99.69
2022-10-14T01:06:38.884Z,99.58
2022-10-14T01:08:49.070Z,99.90
2022-10-14T01:11:10.037Z,99.82
2022-10-14T01:13:14.465Z,99.84
2022-10-14T01:15:28.439Z,99.67
2022-10-14T01:17:59.486Z,99.86
2022-10-14T01:20:30.694Z,99.35
2022-10-14T01:22:37.877Z,99.81
2022-10-14T01:25:01.837Z,99.76
2022-10-14T01:27:23.523Z,99.34
2022-10-14T01:29:59.505Z,99.78
2022-10-14T01:32:07.520Z,99.62
2022-10-14T01:34:13.699Z,99.02
2022-10-14T01:36:22.922Z,98.99
2022-10-14T01:38:30.213Z,98.66
2022-10-14T01:40:41.664Z,98.94
2022-10-14T01:42:46.095Z,99.01
2022-10-14T01:44:56.817Z,99.47
2022-10-14T01:47:00.472Z,99.46
2022-10-14T01:49:10.759Z,98.97
2022-10-14T01:51:19.698Z,99.28
2022-10-14T01:53:26.552Z,99.22
2022-10-14T01:55:32.903Z,99.42
2022-10-14T01:57:38.497Z,99.43
2022-10-14T01:59:41.601Z,99.71
2022-10-14T02:01:43.096Z,99.83
2022-10-14T02:03:46.928Z,99.57
2022-10-14T02:06:05.771Z,99.74
2022-10-14T02:08:11.308Z,99.64
2022-10-14T02:10:31.539Z,99.26
2022-10-14T02:12:51.882Z,99.75
2022-10-14T02:15:08.047Z,99.59
2022-10-14T02:17:41.585Z,99.60
2022-10-14T02:19:55.356Z,99.64
2022-10-14T02:22:10.252Z,99.97
2022-10-14T02:24:21.610Z,99.66
2022-10-14T02:26:25.016Z,99.61
2022-10-14T02:28:29.635Z,99.22
2022-10-14T02:30:34.109Z,99.67
2022-10-14T02:32:38.106Z,99.79
2022-10-14T02:34:41.078Z,99.77
2022-10-14T02:36:44.284Z,99.82
2022-10-14T02:38:47.613Z,99.98
2022-10-14T02:40:50.679Z,100.00
2022-10-14T02:42:52.180Z,99.96
2022-10-14T02:44:55.885Z,99.88
2022-10-14T02:46:57.375Z,100.00
2022-10-14T02:48:58.890Z,100.00
2022-10-14T02:51:00.327Z,100.00
2022-10-14T02:53:01.880Z,99.88
2022-10-14T02:55:03.926Z,100.00
2022-10-14T02:57:05.381Z,100.00
2022-10-14T02:59:06.914Z,100.00
2022-10-14T03:01:08.417Z,100.00
2022-10-14T03:03:10.049Z,100.00
2022-10-14T03:05:11.795Z,100.00
2022-10-14T03:07:13.248Z,100.00
2022-10-14T03:09:14.902Z,100.00
2022-10-14T03:11:16.815Z,100.00
2022-10-14T03:13:18.374Z,100.00
2022-10-14T03:15:19.832Z,100.00
2022-10-14T03:17:21.341Z,100.00
2022-10-14T03:19:22.773Z,100.00
2022-10-14T03:21:24.351Z,100.00
2022-10-14T03:23:25.773Z,100.00
2022-10-14T03:25:27.962Z,100.00
2022-10-14T03:27:29.672Z,100.00
2022-10-14T03:29:31.143Z,100.00
2022-10-14T03:31:32.576Z,100.00
2022-10-14T03:33:34.076Z,100.00
2022-10-14T03:35:35.500Z,100.00
2022-10-14T03:37:36.941Z,100.00
2022-10-14T03:39:38.368Z,100.00
2022-10-14T03:41:39.835Z,100.00
2022-10-14T03:43:41.286Z,100.00
2022-10-14T03:45:45.032Z,100.00
2022-10-14T03:47:46.469Z,100.00
2022-10-14T03:49:47.910Z,100.00
2022-10-14T03:51:49.371Z,100.00
2022-10-14T03:53:50.811Z,100.00
2022-10-14T03:55:52.294Z,100.00
2022-10-14T03:57:53.875Z,100.00
2022-10-14T03:59:55.469Z,100.00
2022-10-14T04:01:56.992Z,100.00
2022-10-14T04:03:58.458Z,100.00
2022-10-14T04:06:00.176Z,100.00
2022-10-14T04:08:01.868Z,100.00
2022-10-14T04:10:03.736Z,100.00
2022-10-14T04:12:05.624Z,100.00
2022-10-14T04:14:07.063Z,100.00
2022-10-14T04:16:10.618Z,100.00
2022-10-14T04:18:12.114Z,100.00
2022-10-14T04:20:15.561Z,100.00
2022-10-14T04:22:17.803Z,100.00
2022-10-14T04:24:19.238Z,100.00
2022-10-14T04:26:20.784Z,100.00
2022-10-14T04:28:22.556Z,100.00
2022-10-14T04:30:24.022Z,100.00
2022-10-14T04:32:25.616Z,100.00
2022-10-14T04:34:27.055Z,100.00
2022-10-14T04:36:28.487Z,100.00
2022-10-14T04:38:30.107Z,100.00
2022-10-14T04:40:31.609Z,100.00
2022-10-14T04:42:33.252Z,100.00
2022-10-14T04:44:35.127Z,100.00
2022-10-14T04:46:36.670Z,100.00
2022-10-14T04:48:38.100Z,100.00
2022-10-14T04:50:39.585Z,100.00
2022-10-14T04:52:41.707Z,100.00
2022-10-14T04:54:43.153Z,100.00
2022-10-14T04:56:44.602Z,100.00
2022-10-14T04:58:46.046Z,100.00
2022-10-14T05:00:47.530Z,100.00
2022-10-14T05:02:49.014Z,100.00
2022-10-14T05:04:50.470Z,100.00
2022-10-14T05:06:51.994Z,100.00
2022-10-14T05:08:53.434Z,100.00
2022-10-14T05:10:54.870Z,100.00
2022-10-14T05:12:56.939Z,100.00
2022-10-14T05:14:58.551Z,100.00
2022-10-14T05:17:00.017Z,100.00
2022-10-14T05:19:01.452Z,100.00
2022-10-14T05:21:03.331Z,100.00
2022-10-14T05:23:06.015Z,100.00
2022-10-14T05:25:07.799Z,100.00
2022-10-14T05:27:09.299Z,100.00
2022-10-14T05:29:11.561Z,100.00
2022-10-14T05:31:13.146Z,100.00
2022-10-14T05:33:14.717Z,100.00
2022-10-14T05:35:22.054Z,100.00
2022-10-14T05:37:35.664Z,100.00
2022-10-14T05:39:37.124Z,100.00
2022-10-14T05:41:39.025Z,100.00
2022-10-14T05:43:40.505Z,100.00
2022-10-14T05:45:41.976Z,100.00
2022-10-14T05:47:44.526Z,100.00
2022-10-14T05:49:46.027Z,100.00
2022-10-14T05:51:47.903Z,100.00
2022-10-14T05:53:49.396Z,100.00
2022-10-14T05:55:50.830Z,100.00
2022-10-14T05:57:56.262Z,100.00
2022-10-14T05:59:57.697Z,100.00
2022-10-14T06:01:59.175Z,100.00
2022-10-14T06:04:00.610Z,100.00
2022-10-14T06:06:02.167Z,100.00
2022-10-14T06:08:03.806Z,100.00
2022-10-14T06:10:05.564Z,100.00
2022-10-14T06:12:07.333Z,100.00
2022-10-14T06:14:08.874Z,100.00
2022-10-14T06:16:10.988Z,100.00
2022-10-14T06:18:12.553Z,100.00
2022-10-14T06:20:14.302Z,100.00
2022-10-14T06:22:15.810Z,100.00
2022-10-14T06:24:17.321Z,100.00
2022-10-14T06:26:18.788Z,100.00
2022-10-14T06:28:20.608Z,100.00
2022-10-14T06:30:22.184Z,100.00
2022-10-14T06:32:24.163Z,100.00
2022-10-14T06:34:25.841Z,100.00
2022-10-14T06:36:27.311Z,100.00
2022-10-14T06:38:28.773Z,100.00
2022-10-14T06:40:30.228Z,100.00
2022-10-14T06:42:33.730Z,100.00
2022-10-14T06:44:35.246Z,100.00
2022-10-14T06:46:36.677Z,100.00
2022-10-14T06:48:38.698Z,100.00
2022-10-14T06:50:41.021Z,100.00
2022-10-14T06:52:45.673Z,100.00
2022-10-14T06:54:48.386Z,100.00
2022-10-14T06:56:50.054Z,100.00
2022-10-14T06:58:55.195Z,100.00
2022-10-14T07:01:05.491Z,99.98
2022-10-14T07:03:07.079Z,99.67
2022-10-14T07:05:08.963Z,99.81
2022-10-14T07:07:10.620Z,99.38
2022-10-14T07:09:12.206Z,99.77
2022-10-14T07:11:13.659Z,99.25
2022-10-14T07:13:15.096Z,99.13
2022-10-14T07:15:16.652Z,99.05
2022-10-14T07:17:18.114Z,99.20
2022-10-14T07:19:19.565Z,99.23
2022-10-14T07:21:21.110Z,98.72
2022-10-14T07:23:22.768Z,98.58
2022-10-14T07:25:24.275Z,98.49
2022-10-14T07:27:25.805Z,98.11
2022-10-14T07:29:28.002Z,97.98
2022-10-14T07:31:30.004Z,98.28
2022-10-14T07:33:31.834Z,98.08
2022-10-14T07:35:33.414Z,97.99
2022-10-14T07:37:34.879Z,97.58
2022-10-14T07:39:36.349Z,97.30
2022-10-14T07:41:39.103Z,97.46
2022-10-14T07:43:40.530Z,97.49
2022-10-14T07:45:44.061Z,97.67
2022-10-14T07:47:48.678Z,97.12
2022-10-14T07:49:50.366Z,97.33
2022-10-14T07:51:51.846Z,96.39
2022-10-14T07:53:55.040Z,97.06
2022-10-14T07:55:58.564Z,96.50
2022-10-14T07:58:01.342Z,96.29
2022-10-14T08:00:04.227Z,96.52
2022-10-14T08:02:05.866Z,95.96
2022-10-14T08:04:07.348Z,95.79
2022-10-14T08:06:08.939Z,95.78
2022-10-14T08:08:11.904Z,94.93
2022-10-14T08:10:13.437Z,95.07
2022-10-14T08:12:14.907Z,94.74
2022-10-14T08:14:16.850Z,94.40
2022-10-14T08:16:22.205Z,94.08
2022-10-14T08:18:24.130Z,93.39
2022-10-14T08:20:25.969Z,93.44
2022-10-14T08:22:27.426Z,92.50
2022-10-14T08:24:28.866Z,91.04
2022-10-14T08:26:48.106Z,90.50
2022-10-14T08:28:51.214Z,89.81
2022-10-14T08:30:53.383Z,88.85
2022-10-14T08:32:55.262Z,88.09
2022-10-14T08:34:56.733Z,88.76
2022-10-14T08:36:58.206Z,88.09
2022-10-14T08:38:59.754Z,88.22
2022-10-14T08:41:13.609Z,87.88
2022-10-14T08:43:26.043Z,88.63
2022-10-14T08:45:27.428Z,87.99
2022-10-14T08:47:37.292Z,87.40
2022-10-14T08:50:02.386Z,86.65
2022-10-14T08:52:10.879Z,86.41
2022-10-14T08:54:17.642Z,86.23
2022-10-14T08:56:20.158Z,86.18
2022-10-14T08:58:28.581Z,86.44
2022-10-14T09:00:33.161Z,86.97
2022-10-14T09:02:49.870Z,86.56
2022-10-14T09:04:51.324Z,85.85
2022-10-14T09:06:54.513Z,86.22
2022-10-14T09:09:04.679Z,84.82
2022-10-14T09:11:11.884Z,84.98
2022-10-14T09:13:22.356Z,84.97
2022-10-14T09:15:38.641Z,85.97
2022-10-14T09:17:57.976Z,85.49
2022-10-14T09:20:02.577Z,84.49
2022-10-14T09:22:14.280Z,84.95
2022-10-14T09:24:20.095Z,84.58
2022-10-14T09:26:21.542Z,84.22
2022-10-14T09:28:31.767Z,84.47
2022-10-14T09:30:37.928Z,84.16
2022-10-14T09:32:47.596Z,83.21
2022-10-14T09:34:50.632Z,83.89
2022-10-14T09:36:53.724Z,84.61
2022-10-14T09:38:56.243Z,84.71
2022-10-14T09:40:59.933Z,84.25
2022-10-14T09:43:10.355Z,84.55
2022-10-14T09:45:15.396Z,84.13
2022-10-14T09:47:19.132Z,83.93
2022-10-14T09:49:32.471Z,83.60
2022-10-14T09:51:34.883Z,83.57
2022-10-14T09:53:45.412Z,84.01
2022-10-14T09:55:49.608Z,84.20
2022-10-14T09:58:06.890Z,84.04
2022-10-14T10:00:27.246Z,84.35
2022-10-14T10:02:48.377Z,84.47
2022-10-14T10:04:50.416Z,84.22
2022-10-14T10:06:54.909Z,83.89
2022-10-14T10:09:00.036Z,83.85
2022-10-14T10:11:09.713Z,83.80
2022-10-14T10:13:22.631Z,83.01
2022-10-14T10:15:24.934Z,82.46
2022-10-14T10:17:29.947Z,82.09
2022-10-14T10:19:34.370Z,81.26
2022-10-14T10:21:36.761Z,79.31
2022-10-14T10:23:38.203Z,78.10
2022-10-14T10:25:39.647Z,78.06
2022-10-14T10:27:42.978Z,77.45
2022-10-14T10:29:44.467Z,77.06
2022-10-14T10:32:22.894Z,77.68
2022-10-14T10:35:01.576Z,76.93
2022-10-14T10:37:13.696Z,77.94
2022-10-14T10:39:35.586Z,79.03
2022-10-14T10:41:59.036Z,78.27
2022-10-14T10:44:33.844Z,77.44
2022-10-14T10:46:51.527Z,77.19
2022-10-14T10:49:08.620Z,77.47
2022-10-14T10:51:14.472Z,77.15
2022-10-14T10:53:40.530Z,77.15
2022-10-14T10:56:00.270Z,76.98
2022-10-14T10:58:19.933Z,76.93
2022-10-14T11:02:58.736Z,77.42
2022-10-14T11:05:18.926Z,77.36
2022-10-14T11:07:46.592Z,78.25
2022-10-14T11:10:32.463Z,78.33
2022-10-14T11:12:50.843Z,77.21
2022-10-14T11:15:40.487Z,77.58
2022-10-14T11:18:08.769Z,78.45
2022-10-14T11:20:29.812Z,79.09
2022-10-14T11:22:40.005Z,79.52
2022-10-14T11:25:19.253Z,79.95
2022-10-14T11:27:26.718Z,80.25
2022-10-14T11:29:57.904Z,80.70
2022-10-14T11:31:59.325Z,81.09
2022-10-14T11:34:31.589Z,81.10
2022-10-14T11:36:42.724Z,81.60
2022-10-14T11:38:44.218Z,81.28
2022-10-14T11:40:50.001Z,81.73
2022-10-14T11:43:04.518Z,81.61
2022-10-14T11:45:31.932Z,81.81
2022-10-14T11:47:37.982Z,81.89
2022-10-14T11:49:59.358Z,82.04
2022-10-14T11:52:12.073Z,82.02
2022-10-14T11:54:31.662Z,81.72
2022-10-14T11:56:54.605Z,81.72
2022-10-14T11:59:01.119Z,81.61
2022-10-14T12:01:12.235Z,81.65
2022-10-14T12:03:47.246Z,81.83
2022-10-14T12:06:19.753Z,81.68
2022-10-14T12:08:45.198Z,81.26
2022-10-14T12:10:59.630Z,81.15
2022-10-14T12:13:01.922Z,80.74
2022-10-14T12:15:14.209Z,80.93
2022-10-14T12:17:21.890Z,80.31
2022-10-14T12:19:28.512Z,80.09
2022-10-14T12:21:37.663Z,79.96
2022-10-14T12:24:08.017Z,79.46
2022-10-14T12:26:25.322Z,79.85
2022-10-14T12:28:27.110Z,80.55
2022-10-14T12:30:47.818Z,80.35
2022-10-14T12:33:22.563Z,81.08
2022-10-14T12:35:47.927Z,81.34
2022-10-14T12:37:51.070Z,80.91
2022-10-14T12:39:54.561Z,80.89
2022-10-14T12:41:59.413Z,80.84
2022-10-14T12:44:03.864Z,79.90
2022-10-14T12:46:15.486Z,80.15
2022-10-14T12:48:25.298Z,80.26
2022-10-14T12:50:34.655Z,80.13
2022-10-14T12:52:38.476Z,79.79
2022-10-14T12:54:47.567Z,79.71
2022-10-14T12:57:04.772Z,79.08
2022-10-14T12:59:09.211Z,79.30
2022-10-14T13:01:19.873Z,78.78
2022-10-14T13:03:27.397Z,79.50
2022-10-14T13:05:46.379Z,79.84
2022-10-14T13:08:07.791Z,79.69
2022-10-14T13:10:28.196Z,79.60
2022-10-14T13:12:31.314Z,79.26
2022-10-14T13:14:53.651Z,79.65
2022-10-14T13:16:59.688Z,79.89
2022-10-14T13:19:02.625Z,79.59
2022-10-14T13:21:06.658Z,79.64
2022-10-14T13:23:26.887Z,80.01
2022-10-14T13:25:28.795Z,80.14
2022-10-14T13:28:11.692Z,80.38
2022-10-14T13:30:34.125Z,80.43
2022-10-14T13:32:47.532Z,80.57
2022-10-14T13:34:55.053Z,80.44
2022-10-14T13:37:18.383Z,81.17
2022-10-14T13:39:20.218Z,80.85
2022-10-14T13:41:29.852Z,80.96
2022-10-14T13:43:42.723Z,80.78
2022-10-14T13:45:48.045Z,80.74
2022-10-14T13:47:49.993Z,80.82
2022-10-14T13:49:51.651Z,81.03
2022-10-14T13:52:08.469Z,81.02
2022-10-14T13:54:32.801Z,81.11
2022-10-14T13:56:34.533Z,81.28
2022-10-14T13:58:41.587Z,81.44
2022-10-14T14:01:00.386Z,81.04
2022-10-14T14:03:10.643Z,81.38
2022-10-14T14:05:18.699Z,81.39
2022-10-14T14:07:47.765Z,81.54
2022-10-14T14:09:51.498Z,81.55
2022-10-14T14:11:55.759Z,81.61
2022-10-14T14:14:02.902Z,81.83
2022-10-14T14:16:04.373Z,81.71
2022-10-14T14:18:05.836Z,81.89
2022-10-14T14:20:11.396Z,81.78
2022-10-14T14:22:29.548Z,81.67
2022-10-14T14:24:31.032Z,81.86
2022-10-14T14:26:38.064Z,81.21
2022-10-14T14:28:39.598Z,81.27
2022-10-14T14:30:50.676Z,81.27
2022-10-14T14:33:00.380Z,81.17
2022-10-14T14:35:04.967Z,81.65
2022-10-14T14:39:29.746Z,81.60
2022-10-14T14:41:32.959Z,81.02
2022-10-14T14:43:39.693Z,80.46
2022-10-14T14:45:46.415Z,80.92
2022-10-14T14:47:49.852Z,81.30
2022-10-14T14:50:01.578Z,81.69
2022-10-14T14:52:15.295Z,81.74
2022-10-14T14:54:22.348Z,81.78
2022-10-14T14:56:31.580Z,81.70
2022-10-14T14:58:45.195Z,81.57
2022-10-14T15:00:47.162Z,81.87
2022-10-14T15:02:52.806Z,82.30
2022-10-14T15:05:09.218Z,81.98
2022-10-14T15:07:21.574Z,81.93
2022-10-14T15:09:42.611Z,81.91
2022-10-14T15:11:57.980Z,82.60
2022-10-14T15:14:00.138Z,82.82
2022-10-14T15:16:01.629Z,83.05
2022-10-14T15:18:19.631Z,83.35
2022-10-14T15:20:30.153Z,83.70
2022-10-14T15:22:37.101Z,83.92
2022-10-14T15:25:03.021Z,83.65
2022-10-14T15:27:30.084Z,83.87
2022-10-14T15:29:31.501Z,83.57
2022-10-14T15:31:33.524Z,83.31
2022-10-14T15:33:36.155Z,83.36
2022-10-14T15:35:37.706Z,83.21
2022-10-14T15:37:39.302Z,83.61
2022-10-14T15:39:40.778Z,83.83
2022-10-14T15:41:43.375Z,83.88
2022-10-14T15:43:44.805Z,84.45
2022-10-14T15:46:09.721Z,84.79
2022-10-14T15:48:20.513Z,84.88
2022-10-14T15:50:25.323Z,85.09
2022-10-14T15:52:29.501Z,85.04
2022-10-14T15:54:31.116Z,85.14
2022-10-14T15:56:32.535Z,85.52
2022-10-14T15:58:33.989Z,84.92
2022-10-14T16:00:35.545Z,84.98
2022-10-14T16:02:37.140Z,85.11
2022-10-14T16:04:45.368Z,85.32
2022-10-14T16:06:57.536Z,85.20
2022-10-14T16:08:59.140Z,85.27
2022-10-14T16:11:00.668Z,85.45
2022-10-14T16:13:02.124Z,85.55
2022-10-14T16:15:13.883Z,85.66
2022-10-14T16:17:15.403Z,85.92
2022-10-14T16:19:16.831Z,85.94
2022-10-14T16:21:18.320Z,86.02
2022-10-14T16:23:22.566Z,86.21
2022-10-14T16:25:33.490Z,86.21
2022-10-14T16:27:34.915Z,86.43
2022-10-14T16:29:36.488Z,86.51
2022-10-14T16:31:38.073Z,86.48
2022-10-14T16:33:41.846Z,86.79
2022-10-14T16:35:50.643Z,86.85
2022-10-14T16:37:53.154Z,87.16
2022-10-14T16:39:54.677Z,86.96
2022-10-14T16:41:56.102Z,87.28
2022-10-14T16:43:57.567Z,87.56
2022-10-14T16:46:00.933Z,87.32
2022-10-14T16:48:02.861Z,87.03
2022-10-14T16:50:05.013Z,87.52
2022-10-14T16:52:07.780Z,87.50
2022-10-14T16:54:09.735Z,87.76
2022-10-14T16:56:34.122Z,87.64
2022-10-14T16:58:35.586Z,87.61
2022-10-14T17:00:37.036Z,87.69
2022-10-14T17:02:38.476Z,87.46
2022-10-14T17:04:41.173Z,87.56
2022-10-14T17:06:42.602Z,87.71
2022-10-14T17:08:44.030Z,87.76
2022-10-14T17:10:45.446Z,87.91
2022-10-14T17:12:47.566Z,88.03
2022-10-14T17:14:49.007Z,87.87
2022-10-14T17:16:52.365Z,88.30
2022-10-14T17:18:54.765Z,88.77
2022-10-14T17:21:06.494Z,89.34
2022-10-14T17:23:10.327Z,89.50
2022-10-14T17:25:12.285Z,89.98
2022-10-14T17:27:13.916Z,90.32
2022-10-14T17:29:15.424Z,90.06
2022-10-14T17:31:22.699Z,89.78
2022-10-14T17:33:26.070Z,89.95
2022-10-14T17:35:27.517Z,89.93
2022-10-14T17:37:30.717Z,89.54
2022-10-14T17:39:32.241Z,90.33
2022-10-14T17:41:34.045Z,90.87
2022-10-14T17:43:36.827Z,91.24
2022-10-14T17:45:38.298Z,91.28
2022-10-14T17:47:39.805Z,91.54
2022-10-14T17:49:41.358Z,90.76
2022-10-14T17:51:42.814Z,90.00
2022-10-14T17:53:44.251Z,90.24
2022-10-14T17:55:45.678Z,90.79
2022-10-14T17:57:47.481Z,90.77
2022-10-14T17:59:49.009Z,90.60
2022-10-14T18:02:02.099Z,91.32
2022-10-14T18:04:04.917Z,91.27
2022-10-14T18:06:20.995Z,91.34
2022-10-14T18:08:23.801Z,91.99
2022-10-14T18:10:25.278Z,91.79
2022-10-14T18:12:26.712Z,92.11
2022-10-14T18:14:28.184Z,92.36
2022-10-14T18:16:33.557Z,92.53
2022-10-14T18:18:35.429Z,92.99
2022-10-14T18:20:37.696Z,93.44
2022-10-14T18:22:39.212Z,93.69
2022-10-14T18:24:40.728Z,94.01
2022-10-14T18:26:42.276Z,94.42
2022-10-14T18:28:46.554Z,94.57
2022-10-14T18:30:48.033Z,94.61
2022-10-14T18:32:49.462Z,94.78
2022-10-14T18:34:50.891Z,95.04
2022-10-14T18:36:52.324Z,95.26
2022-10-14T18:39:01.347Z,95.55
2022-10-14T18:41:05.622Z,95.77
2022-10-14T18:43:07.364Z,95.65
2022-10-14T18:45:09.223Z,95.69
2022-10-14T18:47:10.759Z,96.16
2022-10-14T18:49:12.216Z,95.91
2022-10-14T18:51:15.241Z,96.23
2022-10-14T18:53:16.687Z,96.19
2022-10-14T18:55:18.168Z,96.34
2022-10-14T18:57:20.777Z,96.35
2022-10-14T18:59:23.555Z,96.65
2022-10-14T19:01:26.274Z,96.91
2022-10-14T19:03:27.913Z,97.39
2022-10-14T19:05:32.988Z,97.55
2022-10-14T19:07:34.620Z,98.14
2022-10-14T19:09:36.117Z,97.99
2022-10-14T19:11:37.668Z,98.12
2022-10-14T19:13:43.395Z,98.46
2022-10-14T19:15:46.878Z,98.50
2022-10-14T19:17:56.509Z,98.74
2022-10-14T19:20:00.013Z,98.76
2022-10-14T19:22:01.608Z,98.94
2022-10-14T19:24:03.798Z,99.44
2022-10-14T19:26:06.749Z,99.23
2022-10-14T19:28:09.629Z,99.50
2022-10-14T19:30:11.413Z,99.59
2022-10-14T19:32:12.829Z,99.70
2022-10-14T19:34:15.981Z,99.60
2022-10-14T19:36:19.079Z,99.43
2022-10-14T19:38:20.497Z,99.83
2022-10-14T19:40:23.722Z,99.77
2022-10-14T19:42:25.453Z,99.94
2022-10-14T19:44:26.950Z,99.87
2022-10-14T19:46:29.200Z,99.85
2022-10-14T19:48:30.637Z,99.78
2022-10-14T19:50:32.130Z,99.98
2022-10-14T19:52:33.833Z,100.00
2022-10-14T19:54:35.278Z,100.00
2022-10-14T19:56:36.770Z,100.00
2022-10-14T19:58:43.780Z,100.00
2022-10-14T20:00:46.338Z,100.00
2022-10-14T20:02:48.727Z,100.00
2022-10-14T20:04:50.236Z,100.00
2022-10-14T20:06:51.725Z,100.00
2022-10-14T20:08:53.153Z,100.00
2022-10-14T20:10:54.824Z,100.00
2022-10-14T20:12:56.280Z,100.00
2022-10-14T20:14:57.714Z,100.00
2022-10-14T20:16:59.144Z,100.00
2022-10-14T20:19:00.782Z,100.00
2022-10-14T20:21:03.404Z,100.00
2022-10-14T20:23:04.876Z,100.00
2022-10-14T20:25:06.556Z,100.00
2022-10-14T20:27:11.081Z,100.00
2022-10-14T20:29:13.742Z,100.00
2022-10-14T20:31:17.571Z,100.00
2022-10-14T20:33:19.015Z,100.00
2022-10-14T20:35:20.500Z,100.00
2022-10-14T20:37:25.668Z,100.00
2022-10-14T20:39:29.868Z,100.00
2022-10-14T20:41:31.311Z,100.00
2022-10-14T20:43:32.841Z,100.00
2022-10-14T20:45:34.283Z,100.00
2022-10-14T20:47:35.714Z,100.00
2022-10-14T20:49:37.158Z,100.00
2022-10-14T20:51:38.769Z,100.00
2022-10-14T20:55:46.958Z,100.00
2022-10-14T20:57:48.418Z,100.00
2022-10-14T20:59:49.835Z,100.00
2022-10-14T21:01:51.284Z,100.00
2022-10-14T21:03:53.167Z,100.00
2022-10-14T21:05:54.607Z,100.00
2022-10-14T21:07:56.066Z,100.00
2022-10-14T21:09:57.528Z,100.00
2022-10-14T21:11:58.957Z,100.00
2022-10-14T21:14:00.781Z,100.00
2022-10-14T21:16:02.478Z,100.00
2022-10-14T21:18:04.055Z,100.00
2022-10-14T21:20:06.092Z,100.00
2022-10-14T21:22:09.199Z,100.00
2022-10-14T21:24:14.617Z,100.00
2022-10-14T21:26:16.260Z,100.00
2022-10-14T21:28:17.760Z,100.00
2022-10-14T21:30:19.211Z,100.00
2022-10-14T21:32:20.940Z,100.00
2022-10-14T21:34:24.824Z,100.00
2022-10-14T21:36:27.657Z,100.00
2022-10-14T21:38:29.659Z,100.00
2022-10-14T21:40:31.105Z,100.00
2022-10-14T21:42:32.577Z,100.00
2022-10-14T21:44:34.024Z,100.00
2022-10-14T21:46:35.886Z,100.00
2022-10-14T21:48:37.459Z,100.00
2022-10-14T21:50:38.901Z,100.00
2022-10-14T21:52:40.348Z,100.00
2022-10-14T21:54:41.786Z,100.00
2022-10-14T21:56:43.566Z,100.00
2022-10-14T21:58:45.266Z,100.00
2022-10-14T22:00:46.797Z,100.00
2022-10-14T22:02:52.680Z,100.00
2022-10-14T22:04:54.197Z,100.00
2022-10-14T22:06:55.651Z,100.00
2022-10-14T22:08:59.828Z,100.00
2022-10-14T22:11:02.261Z,100.00
2022-10-14T22:13:03.778Z,100.00
2022-10-14T22:15:06.107Z,100.00
2022-10-14T22:17:07.593Z,100.00
2022-10-14T22:19:11.293Z,100.00
2022-10-14T22:21:15.197Z,100.00
2022-10-14T22:23:17.239Z,100.00
2022-10-14T22:25:18.709Z,100.00
2022-10-14T22:27:20.315Z,100.00
2022-10-14T22:29:22.014Z,100.00
2022-10-14T22:31:23.722Z,100.00
2022-10-14T22:33:25.203Z,100.00
2022-10-14T22:35:26.856Z,100.00
2022-10-14T22:37:31.071Z,100.00
2022-10-14T22:39:32.589Z,100.00
2022-10-14T22:41:35.836Z,100.00
2022-10-14T22:43:38.448Z,100.00
2022-10-14T22:45:39.880Z,100.00
2022-10-14T22:47:41.328Z,100.00
2022-10-14T22:49:42.761Z,100.00
2022-10-14T22:51:44.223Z,100.00
2022-10-14T22:53:46.626Z,100.00
2022-10-14T22:55:55.289Z,100.00
2022-10-14T22:57:56.597Z,100.00
2022-10-14T22:59:58.056Z,100.00
2022-10-14T23:01:59.537Z,100.00
2022-10-14T23:04:01.583Z,100.00
2022-10-14T23:06:06.038Z,100.00
2022-10-14T23:08:11.884Z,100.00
2022-10-14T23:10:13.423Z,100.00
2022-10-14T23:12:22.739Z,100.00
2022-10-14T23:14:24.402Z,100.00
2022-10-14T23:16:27.684Z,100.00
2022-10-14T23:18:30.380Z,100.00
2022-10-14T23:20:33.968Z,100.00
2022-10-14T23:22:35.410Z,100.00
2022-10-14T23:24:36.838Z,100.00
2022-10-14T23:26:38.355Z,100.00
2022-10-14T23:28:40.312Z,100.00
2022-10-14T23:30:41.895Z,100.00
2022-10-14T23:32:43.305Z,100.00
2022-10-14T23:34:44.733Z,100.00
2022-10-14T23:36:46.261Z,100.00
2022-10-14T23:38:48.271Z,100.00
2022-10-14T23:40:49.768Z,100.00
2022-10-14T23:42:51.229Z,100.00
2022-10-14T23:44:52.725Z,100.00
2022-10-14T23:46:54.217Z,100.00
2022-10-14T23:49:06.741Z,100.00
2022-10-14T23:51:09.265Z,100.00
2022-10-14T23:53:11.571Z,100.00
2022-10-14T23:55:13.742Z,99.62
2022-10-14T23:57:15.217Z,99.31
2022-10-14T23:59:16.692Z,99.25
